createdAt,value
2019-02-21T00:01:38.735Z,23.44
2019-02-21T00:04:06.605Z,23.48
2019-02-21T00:06:34.451Z,23.50
2019-02-21T00:09:03.739Z,23.50
2019-02-21T00:11:31.673Z,23.44
2019-02-21T00:14:00.635Z,23.43
2019-02-21T00:16:29.094Z,23.41
2019-02-21T00:18:58.182Z,23.43
2019-02-21T00:21:26.111Z,23.47
2019-02-21T00:23:55.181Z,23.44
2019-02-21T00:26:23.023Z,23.46
2019-02-21T00:28:51.633Z,23.35
2019-02-21T00:31:19.979Z,23.28
2019-02-21T00:33:49.000Z,23.22
2019-02-21T00:38:24.812Z,23.17
2019-02-21T00:40:52.395Z,23.14
2019-02-21T00:43:19.774Z,23.09
2019-02-21T00:45:47.767Z,23.08
2019-02-21T00:48:15.620Z,23.07
2019-02-21T00:50:43.503Z,23.02
2019-02-21T00:55:38.798Z,22.97
2019-02-21T00:58:06.506Z,22.94
2019-02-21T01:00:34.337Z,22.92
2019-02-21T01:03:01.770Z,22.92
2019-02-21T01:05:29.184Z,22.89
2019-02-21T01:07:57.127Z,22.86
2019-02-21T01:10:24.731Z,22.85
2019-02-21T01:12:52.048Z,22.83
2019-02-21T01:15:19.740Z,22.81
2019-02-21T01:17:47.660Z,22.77
2019-02-21T01:20:15.661Z,22.76
2019-02-21T01:22:43.740Z,22.75
2019-02-21T01:25:11.077Z,22.72
2019-02-21T01:27:38.549Z,22.71
2019-02-21T01:32:44.088Z,22.71
2019-02-21T01:35:11.642Z,22.64
2019-02-21T01:37:38.883Z,22.63
2019-02-21T01:40:07.702Z,22.59
2019-02-21T01:42:34.941Z,22.58
2019-02-21T01:45:02.197Z,22.57
2019-02-21T01:47:29.535Z,22.54
2019-02-21T01:49:56.793Z,22.53
2019-02-21T01:52:24.022Z,22.52
2019-02-21T01:54:51.570Z,22.51
2019-02-21T01:57:18.852Z,22.49
2019-02-21T01:59:46.427Z,22.45
2019-02-21T02:02:13.727Z,22.42
2019-02-21T02:04:41.001Z,22.42
2019-02-21T02:07:08.778Z,22.45
2019-02-21T02:09:37.078Z,22.45
2019-02-21T02:12:04.750Z,22.37
2019-02-21T02:14:32.797Z,22.41
2019-02-21T02:17:00.710Z,22.38
2019-02-21T02:19:28.633Z,22.36
2019-02-21T02:21:56.038Z,22.33
2019-02-21T02:24:24.626Z,22.31
2019-02-21T02:26:53.059Z,22.31
2019-02-21T02:29:21.027Z,22.30
2019-02-21T02:31:52.406Z,22.30
2019-02-21T02:34:21.160Z,22.31
2019-02-21T02:36:48.986Z,22.26
2019-02-21T02:39:17.677Z,22.26
2019-02-21T02:41:45.169Z,22.24
2019-02-21T02:44:13.425Z,22.22
2019-02-21T02:46:40.592Z,22.21
2019-02-21T02:49:09.391Z,22.18
2019-02-21T02:51:37.142Z,22.19
2019-02-21T02:54:04.482Z,22.18
2019-02-21T02:56:32.559Z,22.14
2019-02-21T02:59:00.712Z,22.15
2019-02-21T03:01:34.667Z,22.16
2019-02-21T03:03:58.821Z,22.15
2019-02-21T03:06:26.909Z,22.10
2019-02-21T03:08:55.298Z,22.12
2019-02-21T03:11:24.378Z,22.10
2019-02-21T03:13:52.964Z,22.09
2019-02-21T03:16:21.825Z,22.09
2019-02-21T03:18:49.841Z,22.07
2019-02-21T03:21:17.995Z,22.05
2019-02-21T03:23:46.104Z,22.02
2019-02-21T03:26:14.032Z,21.99
2019-02-21T03:28:42.911Z,22.04
2019-02-21T03:31:10.981Z,21.99
2019-02-21T03:33:39.374Z,22.02
2019-02-21T03:36:08.714Z,22.02
2019-02-21T03:38:39.150Z,21.97
2019-02-21T03:41:07.293Z,21.97
2019-02-21T03:43:35.299Z,22.01
2019-02-21T03:46:03.821Z,21.97
2019-02-21T03:48:32.574Z,22.01
2019-02-21T03:51:01.298Z,21.99
2019-02-21T03:53:29.285Z,22.01
2019-02-21T03:55:57.432Z,22.00
2019-02-21T03:58:25.510Z,21.99
2019-02-21T04:00:54.022Z,21.99
2019-02-21T04:03:23.258Z,21.98
2019-02-21T04:05:51.560Z,21.98
2019-02-21T04:08:19.720Z,21.95
2019-02-21T04:10:47.938Z,21.91
2019-02-21T04:13:15.961Z,21.90
2019-02-21T04:15:43.703Z,21.82
2019-02-21T04:18:15.902Z,21.82
2019-02-21T04:20:43.886Z,21.90
2019-02-21T04:23:12.934Z,21.89
2019-02-21T04:25:40.800Z,21.87
2019-02-21T04:28:08.653Z,21.87
2019-02-21T04:30:37.612Z,21.85
2019-02-21T04:33:06.655Z,21.88
2019-02-21T04:35:35.443Z,21.87
2019-02-21T04:38:04.593Z,21.90
2019-02-21T04:40:33.825Z,21.90
2019-02-21T04:43:02.766Z,21.88
2019-02-21T04:45:31.892Z,21.92
2019-02-21T04:48:00.791Z,21.91
2019-02-21T04:50:29.405Z,21.91
2019-02-21T04:52:57.384Z,21.90
2019-02-21T04:55:26.211Z,21.87
2019-02-21T04:57:55.247Z,21.88
2019-02-21T05:00:23.222Z,21.87
2019-02-21T05:02:54.038Z,21.90
2019-02-21T05:05:22.211Z,21.89
2019-02-21T05:07:50.608Z,21.87
2019-02-21T05:10:18.955Z,21.93
2019-02-21T05:12:47.353Z,21.97
2019-02-21T05:15:15.209Z,21.97
2019-02-21T05:17:43.355Z,21.97
2019-02-21T05:20:11.181Z,21.98
2019-02-21T05:22:39.380Z,22.00
2019-02-21T05:25:07.317Z,22.01
2019-02-21T05:27:38.439Z,22.03
2019-02-21T05:30:09.438Z,22.01
2019-02-21T05:32:57.554Z,22.01
2019-02-21T05:35:56.935Z,22.01
2019-02-21T05:38:47.002Z,21.98
2019-02-21T05:41:41.045Z,22.03
2019-02-21T05:44:24.412Z,21.99
2019-02-21T05:47:00.971Z,22.01
2019-02-21T05:49:48.059Z,21.99
2019-02-21T05:52:31.262Z,21.99
2019-02-21T05:55:04.658Z,22.01
2019-02-21T05:57:55.133Z,21.98
2019-02-21T06:00:45.547Z,21.98
2019-02-21T06:03:25.993Z,21.95
2019-02-21T06:06:09.481Z,21.94
2019-02-21T06:08:44.306Z,21.97
2019-02-21T06:11:38.178Z,21.95
2019-02-21T06:14:30.714Z,21.96
2019-02-21T06:17:07.979Z,21.93
2019-02-21T06:19:48.100Z,21.94
2019-02-21T06:22:35.666Z,21.90
2019-02-21T06:25:31.365Z,21.92
2019-02-21T06:28:12.168Z,21.94
2019-02-21T06:30:44.221Z,21.93
2019-02-21T06:33:15.445Z,21.93
2019-02-21T06:35:43.771Z,21.93
2019-02-21T06:38:12.324Z,21.94
2019-02-21T06:40:40.497Z,21.92
2019-02-21T06:43:08.614Z,21.97
2019-02-21T06:45:36.519Z,22.05
2019-02-21T06:48:05.010Z,22.02
2019-02-21T06:50:33.630Z,22.00
2019-02-21T06:53:02.347Z,22.07
2019-02-21T06:55:30.247Z,22.10
2019-02-21T06:57:58.883Z,21.94
2019-02-21T07:00:26.812Z,21.94
2019-02-21T07:02:54.719Z,21.92
2019-02-21T07:05:23.277Z,21.92
2019-02-21T07:07:52.240Z,21.95
2019-02-21T07:10:21.316Z,22.16
2019-02-21T07:12:49.491Z,22.18
2019-02-21T07:15:18.389Z,22.18
2019-02-21T07:17:49.620Z,22.26
2019-02-21T07:20:17.723Z,22.32
2019-02-21T07:22:45.550Z,22.29
2019-02-21T07:25:24.660Z,22.34
2019-02-21T07:27:53.738Z,22.34
2019-02-21T07:30:23.349Z,22.34
2019-02-21T07:32:51.731Z,22.34
2019-02-21T07:35:20.080Z,22.34
2019-02-21T07:37:49.043Z,22.33
2019-02-21T07:40:20.381Z,22.47
2019-02-21T07:42:48.541Z,22.49
2019-02-21T07:45:16.563Z,22.48
2019-02-21T07:47:45.727Z,22.57
2019-02-21T07:50:15.507Z,22.62
2019-02-21T07:52:44.244Z,22.71
2019-02-21T07:55:12.597Z,22.72
2019-02-21T07:57:41.272Z,22.77
2019-02-21T08:00:10.544Z,22.77
2019-02-21T08:02:39.119Z,22.82
2019-02-21T08:05:07.464Z,22.95
2019-02-21T08:07:35.604Z,22.97
2019-02-21T08:10:03.973Z,23.00
2019-02-21T08:12:32.491Z,23.08
2019-02-21T08:15:52.890Z,23.08
2019-02-21T08:18:28.523Z,23.13
2019-02-21T08:20:58.657Z,23.13
2019-02-21T08:23:27.718Z,23.22
2019-02-21T08:25:56.763Z,23.22
2019-02-21T08:28:25.773Z,23.29
2019-02-21T08:33:01.320Z,23.31
2019-02-21T08:35:29.154Z,23.38
2019-02-21T08:37:57.503Z,23.31
2019-02-21T08:40:26.582Z,23.39
2019-02-21T08:42:54.220Z,23.50
2019-02-21T08:45:22.134Z,23.50
2019-02-21T08:47:49.424Z,23.50
2019-02-21T08:50:16.689Z,23.52
2019-02-21T08:52:44.484Z,23.54
2019-02-21T08:55:12.466Z,23.60
2019-02-21T08:58:14.602Z,23.67
2019-02-21T09:00:42.893Z,23.67
2019-02-21T09:03:11.679Z,23.70
2019-02-21T09:05:39.834Z,23.77
2019-02-21T09:08:08.180Z,23.79
2019-02-21T09:10:36.393Z,23.84
2019-02-21T09:13:04.533Z,23.92
2019-02-21T09:15:32.504Z,23.93
2019-02-21T09:18:01.597Z,23.98
2019-02-21T09:20:30.477Z,24.07
2019-02-21T09:23:00.038Z,24.07
2019-02-21T09:25:28.965Z,24.02
2019-02-21T09:27:59.763Z,24.02
2019-02-21T09:30:28.202Z,24.16
2019-02-21T09:32:57.081Z,24.23
2019-02-21T09:35:24.883Z,24.27
2019-02-21T09:37:52.770Z,24.32
2019-02-21T09:40:21.622Z,24.29
2019-02-21T09:42:50.273Z,24.31
2019-02-21T09:47:37.574Z,24.33
2019-02-21T09:50:05.804Z,24.32
2019-02-21T09:52:33.413Z,24.37
2019-02-21T09:55:01.584Z,24.37
2019-02-21T09:57:29.754Z,24.39
2019-02-21T09:59:57.947Z,24.40
2019-02-21T10:02:26.110Z,24.33
2019-02-21T10:05:04.245Z,24.48
2019-02-21T10:07:23.299Z,24.51
2019-02-21T10:09:50.588Z,24.53
2019-02-21T10:14:58.582Z,24.64
2019-02-21T10:17:26.438Z,24.61
2019-02-21T10:19:54.541Z,24.66
2019-02-21T10:22:26.265Z,24.69
2019-02-21T10:24:56.850Z,24.70
2019-02-21T10:27:23.625Z,24.76
2019-02-21T10:29:51.886Z,24.77
2019-02-21T10:32:20.059Z,24.83
2019-02-21T10:34:47.967Z,24.86
2019-02-21T10:37:15.761Z,24.86
2019-02-21T10:39:43.655Z,24.92
2019-02-21T10:42:12.214Z,25.03
2019-02-21T10:44:40.616Z,25.06
2019-02-21T10:47:09.084Z,25.03
2019-02-21T10:49:36.821Z,25.11
2019-02-21T10:52:04.511Z,25.14
2019-02-21T10:54:32.575Z,25.14
2019-02-21T10:56:59.818Z,25.27
2019-02-21T10:59:27.305Z,25.33
2019-02-21T11:01:54.527Z,25.32
2019-02-21T11:04:21.805Z,25.40
2019-02-21T11:06:49.343Z,25.30
2019-02-21T11:09:21.122Z,25.38
2019-02-21T11:11:48.314Z,25.41
2019-02-21T11:14:16.125Z,25.38
2019-02-21T11:16:43.330Z,25.34
2019-02-21T11:19:12.239Z,25.32
2019-02-21T11:21:39.419Z,25.40
2019-02-21T11:24:06.642Z,25.49
2019-02-21T11:26:33.954Z,25.51
2019-02-21T11:29:02.100Z,25.42
2019-02-21T11:31:30.373Z,25.55
2019-02-21T11:33:58.932Z,25.57
2019-02-21T11:36:26.722Z,25.59
2019-02-21T11:38:54.281Z,25.64
2019-02-21T11:41:22.912Z,25.71
2019-02-21T11:43:50.410Z,25.82
2019-02-21T11:46:18.085Z,25.93
2019-02-21T11:48:45.988Z,25.86
2019-02-21T11:51:13.285Z,25.86
2019-02-21T11:53:41.184Z,25.99
2019-02-21T11:56:08.459Z,25.95
2019-02-21T11:58:35.918Z,25.98
2019-02-21T12:01:03.128Z,26.02
2019-02-21T12:03:30.487Z,26.08
2019-02-21T12:05:58.851Z,26.07
2019-02-21T12:08:26.856Z,26.07
2019-02-21T12:10:54.066Z,26.08
2019-02-21T12:13:21.687Z,26.03
2019-02-21T12:15:49.824Z,26.07
2019-02-21T12:19:32.698Z,26.10
2019-02-21T12:22:00.383Z,26.08
2019-02-21T12:24:27.683Z,25.98
2019-02-21T12:26:56.211Z,25.98
2019-02-21T12:29:24.105Z,25.96
2019-02-21T12:31:52.166Z,25.91
2019-02-21T12:34:19.657Z,25.89
2019-02-21T12:36:47.157Z,25.92
2019-02-21T12:39:14.981Z,25.90
2019-02-21T12:41:42.204Z,25.92
2019-02-21T12:44:09.783Z,25.91
2019-02-21T12:46:37.530Z,25.90
2019-02-21T12:49:05.165Z,25.92
2019-02-21T12:51:52.291Z,25.90
2019-02-21T12:54:20.355Z,25.89
2019-02-21T12:56:48.601Z,25.86
2019-02-21T12:59:15.823Z,25.83
2019-02-21T13:02:02.631Z,25.83
2019-02-21T13:04:33.267Z,25.86
2019-02-21T13:07:00.405Z,25.83
2019-02-21T13:09:28.510Z,25.81
2019-02-21T13:11:56.419Z,25.80
2019-02-21T13:14:24.681Z,25.81
2019-02-21T13:16:52.435Z,25.81
2019-02-21T13:19:20.031Z,25.85
2019-02-21T13:21:47.874Z,25.84
2019-02-21T13:24:15.315Z,25.77
2019-02-21T13:26:42.554Z,25.73
2019-02-21T13:29:09.778Z,25.68
2019-02-21T13:31:37.057Z,25.72
2019-02-21T13:34:04.265Z,25.81
2019-02-21T13:36:33.948Z,25.79
2019-02-21T13:39:00.715Z,25.77
2019-02-21T13:41:27.970Z,25.78
2019-02-21T13:43:55.558Z,25.72
2019-02-21T13:46:23.221Z,25.64
2019-02-21T13:48:50.549Z,25.54
2019-02-21T13:51:18.107Z,25.48
2019-02-21T13:53:45.912Z,25.48
2019-02-21T13:56:13.125Z,25.46
2019-02-21T13:58:40.433Z,25.45
2019-02-21T14:01:07.992Z,25.49
2019-02-21T14:03:37.191Z,25.52
2019-02-21T14:06:04.400Z,25.46
2019-02-21T14:08:31.658Z,25.40
2019-02-21T14:10:59.175Z,25.39
2019-02-21T14:13:26.378Z,25.41
2019-02-21T14:15:53.657Z,25.40
2019-02-21T14:18:24.439Z,25.39
2019-02-21T14:20:52.498Z,25.45
2019-02-21T14:23:22.464Z,25.53
2019-02-21T14:28:20.766Z,25.64
2019-02-21T14:30:48.240Z,25.60
2019-02-21T14:33:17.474Z,25.60
2019-02-21T14:35:45.421Z,25.64
2019-02-21T14:38:12.624Z,25.68
2019-02-21T14:40:39.966Z,25.69
2019-02-21T14:43:07.148Z,25.67
2019-02-21T14:45:34.401Z,25.65
2019-02-21T14:48:02.262Z,25.65
2019-02-21T14:50:30.520Z,25.64
2019-02-21T14:52:58.698Z,25.57
2019-02-21T14:55:26.243Z,25.52
2019-02-21T14:57:53.565Z,25.43
2019-02-21T15:00:21.469Z,25.45
2019-02-21T15:02:48.679Z,25.43
2019-02-21T15:05:16.413Z,25.41
2019-02-21T15:07:44.606Z,25.44
2019-02-21T15:10:12.152Z,25.41
2019-02-21T15:12:40.751Z,25.38
2019-02-21T15:15:10.545Z,25.34
2019-02-21T15:17:39.798Z,25.31
2019-02-21T15:20:10.310Z,25.28
2019-02-21T15:22:38.952Z,25.23
2019-02-21T15:25:07.996Z,25.20
2019-02-21T15:27:36.259Z,25.17
2019-02-21T15:30:05.734Z,25.09
2019-02-21T15:32:34.496Z,25.08
2019-02-21T15:35:03.495Z,25.15
2019-02-21T15:37:32.463Z,25.26
2019-02-21T15:40:00.484Z,25.31
2019-02-21T15:42:28.731Z,25.36
2019-02-21T15:44:56.635Z,25.37
2019-02-21T15:47:25.093Z,25.37
2019-02-21T15:49:52.984Z,25.35
2019-02-21T15:52:25.391Z,25.36
2019-02-21T15:54:53.248Z,25.22
2019-02-21T15:57:22.787Z,25.35
2019-02-21T15:59:51.015Z,25.34
2019-02-21T16:02:19.631Z,25.32
2019-02-21T16:04:48.270Z,25.29
2019-02-21T16:07:16.957Z,25.28
2019-02-21T16:09:45.449Z,25.25
2019-02-21T16:12:13.313Z,25.19
2019-02-21T16:14:41.477Z,25.18
2019-02-21T16:17:09.485Z,25.17
2019-02-21T16:19:37.409Z,25.22
2019-02-21T16:22:05.548Z,25.19
2019-02-21T16:24:34.529Z,25.20
2019-02-21T16:27:02.506Z,25.17
2019-02-21T16:29:31.401Z,25.12
2019-02-21T16:32:00.561Z,25.06
2019-02-21T16:34:29.923Z,25.08
2019-02-21T16:37:02.459Z,25.02
2019-02-21T16:39:28.995Z,24.91
2019-02-21T16:41:57.634Z,24.88
2019-02-21T16:44:26.200Z,24.90
2019-02-21T16:46:57.698Z,24.89
2019-02-21T16:49:26.348Z,24.92
2019-02-21T16:51:54.604Z,24.90
2019-02-21T16:54:23.502Z,24.90
2019-02-21T16:56:56.593Z,24.90
2019-02-21T16:59:24.744Z,24.89
2019-02-21T17:01:52.915Z,24.89
2019-02-21T17:04:21.483Z,24.88
2019-02-21T17:06:49.535Z,24.87
2019-02-21T17:09:18.464Z,24.86
2019-02-21T17:11:46.865Z,24.85
2019-02-21T17:14:14.861Z,24.88
2019-02-21T17:16:43.541Z,24.85
2019-02-21T17:19:16.508Z,24.89
2019-02-21T17:21:45.052Z,24.88
2019-02-21T17:24:13.319Z,24.88
2019-02-21T17:26:41.775Z,24.88
2019-02-21T17:29:10.822Z,24.91
2019-02-21T17:31:39.833Z,24.94
2019-02-21T17:34:08.515Z,24.93
2019-02-21T17:36:37.287Z,24.92
2019-02-21T17:39:08.341Z,24.95
2019-02-21T17:41:36.710Z,24.96
2019-02-21T17:44:05.482Z,24.95
2019-02-21T17:46:33.688Z,24.99
2019-02-21T17:49:01.979Z,24.97
2019-02-21T17:51:30.387Z,24.92
2019-02-21T17:53:59.530Z,24.92
2019-02-21T17:56:27.723Z,24.90
2019-02-21T17:58:57.448Z,24.88
2019-02-21T18:01:26.174Z,24.93
2019-02-21T18:03:53.844Z,24.96
2019-02-21T18:06:23.644Z,24.96
2019-02-21T18:08:54.898Z,24.98
2019-02-21T18:11:23.082Z,24.97
2019-02-21T18:13:51.632Z,24.99
2019-02-21T18:16:20.482Z,24.92
2019-02-21T18:18:48.604Z,24.92
2019-02-21T18:21:17.193Z,24.91
2019-02-21T18:23:45.868Z,24.89
2019-02-21T18:26:17.802Z,24.85
2019-02-21T18:28:51.696Z,24.85
2019-02-21T18:31:27.893Z,24.86
2019-02-21T18:33:57.508Z,24.89
2019-02-21T18:36:27.933Z,24.91
2019-02-21T18:38:58.312Z,24.91
2019-02-21T18:41:26.745Z,24.88
2019-02-21T18:43:54.797Z,24.86
2019-02-21T18:46:22.593Z,24.82
2019-02-21T18:48:50.680Z,24.80
2019-02-21T18:51:36.990Z,24.82
2019-02-21T18:54:04.987Z,24.77
2019-02-21T18:56:32.804Z,24.83
2019-02-21T18:59:00.172Z,24.84
2019-02-21T19:01:27.386Z,24.83
2019-02-21T19:03:55.198Z,24.83
2019-02-21T19:06:23.105Z,24.82
2019-02-21T19:08:51.970Z,24.83
2019-02-21T19:11:19.800Z,24.86
2019-02-21T19:13:47.798Z,24.89
2019-02-21T19:16:15.274Z,24.89
2019-02-21T19:18:43.719Z,24.90
2019-02-21T19:21:12.589Z,24.90
2019-02-21T19:23:40.162Z,24.90
2019-02-21T19:26:07.755Z,24.84
2019-02-21T19:28:35.818Z,24.84
2019-02-21T19:31:08.693Z,24.92
2019-02-21T19:33:37.062Z,24.97
2019-02-21T19:36:04.406Z,24.98
2019-02-21T19:38:31.665Z,24.98
2019-02-21T19:40:58.891Z,24.95
2019-02-21T19:43:27.398Z,24.91
2019-02-21T19:45:55.433Z,24.90
2019-02-21T19:48:22.656Z,24.90
2019-02-21T19:50:50.020Z,24.88
2019-02-21T19:53:17.554Z,24.87
2019-02-21T19:55:48.157Z,24.85
2019-02-21T19:58:15.906Z,24.84
2019-02-21T20:00:43.880Z,24.83
2019-02-21T20:03:12.195Z,24.83
2019-02-21T20:05:40.036Z,24.80
2019-02-21T20:08:09.241Z,24.81
2019-02-21T20:10:38.484Z,24.80
2019-02-21T20:14:03.134Z,24.81
2019-02-21T20:16:30.809Z,24.73
2019-02-21T20:18:58.044Z,24.73
2019-02-21T20:21:26.520Z,24.73
2019-02-21T20:23:55.108Z,24.72
2019-02-21T20:26:22.307Z,24.69
2019-02-21T20:28:49.736Z,24.65
2019-02-21T20:31:17.686Z,24.65
2019-02-21T20:33:45.049Z,24.66
2019-02-21T20:36:12.583Z,24.65
2019-02-21T20:38:40.782Z,24.64
2019-02-21T20:41:08.493Z,24.39
2019-02-21T20:43:35.742Z,24.58
2019-02-21T20:46:03.202Z,24.50
2019-02-21T20:48:31.555Z,24.47
2019-02-21T20:51:01.526Z,24.46
2019-02-21T20:53:28.726Z,24.46
2019-02-21T20:55:56.244Z,24.50
2019-02-21T20:58:24.094Z,24.48
2019-02-21T21:00:51.433Z,24.46
2019-02-21T21:03:19.148Z,24.45
2019-02-21T21:05:46.964Z,24.44
2019-02-21T21:08:15.858Z,24.44
2019-02-21T21:10:43.136Z,24.45
2019-02-21T21:13:10.571Z,24.41
2019-02-21T21:15:38.249Z,24.41
2019-02-21T21:18:05.496Z,24.41
2019-02-21T21:20:33.303Z,24.40
2019-02-21T21:23:01.421Z,24.37
2019-02-21T21:25:31.773Z,24.39
2019-02-21T21:27:58.417Z,24.39
2019-02-21T21:30:25.970Z,24.36
2019-02-21T21:32:53.254Z,24.36
2019-02-21T21:35:21.097Z,24.36
2019-02-21T21:37:49.023Z,24.36
2019-02-21T21:40:16.406Z,24.36
2019-02-21T21:42:44.258Z,24.39
2019-02-21T21:45:14.184Z,24.36
2019-02-21T21:47:41.759Z,24.37
2019-02-21T21:50:10.270Z,24.38
2019-02-21T21:52:41.551Z,24.38
2019-02-21T21:55:09.411Z,24.42
2019-02-21T21:57:37.281Z,24.45
2019-02-21T22:00:06.994Z,24.47
2019-02-21T22:02:35.374Z,24.52
2019-02-21T22:05:02.933Z,24.45
2019-02-21T22:07:30.523Z,24.45
2019-02-21T22:09:58.746Z,24.63
2019-02-21T22:12:26.714Z,24.63
2019-02-21T22:14:54.905Z,24.67
2019-02-21T22:17:22.882Z,24.73
2019-02-21T22:19:51.059Z,24.79
2019-02-21T22:22:18.623Z,24.83
2019-02-21T22:24:46.121Z,24.86
2019-02-21T22:27:14.022Z,24.86
2019-02-21T22:29:41.913Z,24.89
2019-02-21T22:32:09.490Z,24.92
2019-02-21T22:34:37.569Z,24.93
2019-02-21T22:37:05.627Z,24.95
2019-02-21T22:39:33.798Z,24.95
2019-02-21T22:42:01.090Z,24.92
2019-02-21T22:44:47.913Z,24.88
2019-02-21T22:47:15.374Z,24.85
2019-02-21T22:49:43.511Z,24.81
2019-02-21T22:52:11.033Z,24.76
2019-02-21T22:54:39.554Z,24.76
2019-02-21T22:57:07.097Z,24.74
2019-02-21T22:59:34.941Z,24.74
2019-02-21T23:02:02.286Z,24.70
2019-02-21T23:05:33.485Z,24.69
2019-02-21T23:08:45.515Z,24.68
2019-02-21T23:11:12.736Z,24.62
2019-02-21T23:13:39.971Z,24.55
2019-02-21T23:16:07.875Z,24.55
2019-02-21T23:18:35.520Z,24.52
2019-02-21T23:21:02.998Z,24.52
2019-02-21T23:23:30.367Z,24.50
2019-02-21T23:25:57.947Z,24.50
2019-02-21T23:28:26.210Z,24.50
2019-02-21T23:30:53.449Z,24.42
2019-02-21T23:33:21.172Z,24.47
2019-02-21T23:35:48.395Z,24.45
2019-02-21T23:38:16.506Z,24.46
2019-02-21T23:40:43.784Z,24.45
2019-02-21T23:43:11.118Z,24.43
2019-02-21T23:45:38.715Z,24.43
2019-02-21T23:48:07.672Z,24.29
2019-02-21T23:50:35.238Z,24.41
2019-02-21T23:53:02.487Z,24.41
2019-02-21T23:55:30.817Z,24.40
2019-02-21T23:57:58.080Z,24.40
